KSBS

Steamboat Springs / Bob Adams Field Airport

Steamboat Springs, Colorado, USA
METAR KSBS 182135Z AUTO 00000KT 10SM SCT060 SCT075 SCT080 22/09 A3026 RMK AO1 T02200086
Observed Flight Rules
Aug-18 @ 21:35 UTC (19 minutes ago) Visual Flight Rules
Visibility Clouds
10 miles
  • Scattered at 6,000' AGL
  • Scattered at 7,500' AGL
  • Scattered at 8,000' AGL
Temperatures Readings
Current 22°C / 72°F
Dewpoint 9°C / 48°F
Humidity 44%
Altimeter 30.26" Hg
Pressure 1025 hPa
Elevation 2096
METAR KSBS 182135Z AUTO 00000KT 10SM SCT060 SCT075 SCT080 22/09 A3026 RMK AO1 T02200086
Observed Flight Rules
Aug-18 @ 21:35 UTC
(19 minutes ago)
VFR
Clouds
  • Scattered at 6,000' AGL
  • Scattered at 7,500' AGL
  • Scattered at 8,000' AGL
Temperature Dewpoint
22°C / 72°F 9°C / 48°F
Humidity Altimeter Pressure
44% 30.26" Hg 1025 hPa